createdAt,value
2022-11-24T00:01:15.847Z,1.27
2022-11-24T00:03:43.454Z,1.50
2022-11-24T00:06:12.442Z,1.15
2022-11-24T00:08:40.399Z,1.15
2022-11-24T00:11:11.540Z,1.20
2022-11-24T00:13:41.260Z,1.40
2022-11-24T00:16:19.272Z,1.30
2022-11-24T00:18:48.066Z,1.23
2022-11-24T00:21:15.860Z,1.15
2022-11-24T00:23:42.566Z,1.27
2022-11-24T00:26:10.768Z,1.10
2022-11-24T00:28:38.031Z,1.08
2022-11-24T00:31:06.267Z,1.05
2022-11-24T00:33:32.886Z,1.00
2022-11-24T00:36:00.324Z,1.02
2022-11-24T00:38:26.895Z,1.13
2022-11-24T00:40:53.534Z,1.10
2022-11-24T00:43:20.320Z,1.00
2022-11-24T00:45:46.963Z,1.10
2022-11-24T00:48:13.549Z,0.90
2022-11-24T00:50:40.091Z,0.90
2022-11-24T00:53:06.635Z,0.80
2022-11-24T00:55:33.138Z,0.95
2022-11-24T00:57:59.615Z,1.02
2022-11-24T01:00:26.543Z,1.13
2022-11-24T01:02:53.250Z,1.20
2022-11-24T01:05:19.879Z,1.10
2022-11-24T01:07:46.331Z,1.17
2022-11-24T01:10:13.005Z,1.00
2022-11-24T01:12:39.549Z,1.20
2022-11-24T01:15:06.611Z,0.90
2022-11-24T01:17:33.160Z,1.00
2022-11-24T01:19:59.682Z,1.00
2022-11-24T01:22:27.488Z,1.20
2022-11-24T01:24:53.978Z,1.25
2022-11-24T01:27:20.451Z,1.35
2022-11-24T01:29:46.912Z,1.08
2022-11-24T01:32:13.398Z,1.05
2022-11-24T01:34:39.867Z,1.00
2022-11-24T01:37:06.313Z,1.00
2022-11-24T01:39:32.807Z,1.10
2022-11-24T01:42:01.896Z,1.02
2022-11-24T01:44:30.743Z,0.98
2022-11-24T01:47:07.525Z,1.00
2022-11-24T01:49:40.045Z,1.20
2022-11-24T01:52:12.800Z,1.00
2022-11-24T01:54:43.973Z,0.95
2022-11-24T01:57:16.611Z,1.00
2022-11-24T01:59:45.109Z,0.90
2022-11-24T02:02:12.045Z,0.90
2022-11-24T02:04:38.993Z,0.80
2022-11-24T02:07:06.588Z,0.68
2022-11-24T02:09:46.901Z,0.82
2022-11-24T02:12:13.531Z,0.70
2022-11-24T02:14:41.059Z,0.90
2022-11-24T02:17:08.575Z,0.90
2022-11-24T02:19:46.333Z,0.82
2022-11-24T02:22:18.917Z,1.10
2022-11-24T02:24:52.673Z,0.90
2022-11-24T02:27:19.977Z,1.05
2022-11-24T02:29:46.672Z,0.73
2022-11-24T02:32:13.450Z,0.90
2022-11-24T02:34:39.986Z,0.82
2022-11-24T02:37:06.453Z,0.88
2022-11-24T02:39:33.272Z,0.95
2022-11-24T02:42:04.952Z,0.80
2022-11-24T02:44:36.518Z,0.82
2022-11-24T02:47:11.359Z,0.93
2022-11-24T02:49:38.728Z,0.95
2022-11-24T02:52:06.040Z,0.90
2022-11-24T02:54:32.924Z,0.90
2022-11-24T02:56:59.747Z,1.00
2022-11-24T02:59:26.235Z,0.93
2022-11-24T03:01:52.987Z,1.05
2022-11-24T03:04:19.586Z,1.05
2022-11-24T03:06:46.168Z,1.00
2022-11-24T03:09:12.698Z,1.08
2022-11-24T03:11:39.307Z,1.00
2022-11-24T03:14:06.737Z,1.00
2022-11-24T03:16:33.515Z,1.00
2022-11-24T03:19:00.477Z,0.90
2022-11-24T03:21:27.144Z,0.90
2022-11-24T03:23:53.989Z,0.90
2022-11-24T03:26:22.028Z,0.70
2022-11-24T03:28:48.555Z,0.70
2022-11-24T03:31:15.549Z,0.82
2022-11-24T03:33:42.078Z,0.80
2022-11-24T03:36:09.194Z,0.80
2022-11-24T03:38:36.091Z,0.70
2022-11-24T03:41:02.661Z,0.90
2022-11-24T03:43:29.202Z,0.90
2022-11-24T03:45:55.738Z,0.90
2022-11-24T03:48:22.306Z,0.70
2022-11-24T03:50:56.095Z,0.80
2022-11-24T03:53:23.570Z,0.80
2022-11-24T03:55:50.080Z,0.70
2022-11-24T03:58:16.587Z,0.80
2022-11-24T04:00:43.144Z,0.70
2022-11-24T04:03:09.685Z,0.90
2022-11-24T04:05:36.675Z,0.60
2022-11-24T04:08:05.364Z,0.82
2022-11-24T04:10:33.387Z,0.85
2022-11-24T04:12:59.887Z,0.68
2022-11-24T04:15:26.517Z,0.90
2022-11-24T04:17:54.990Z,0.77
2022-11-24T04:20:22.462Z,0.70
2022-11-24T04:22:50.880Z,0.75
2022-11-24T04:25:17.573Z,0.73
2022-11-24T04:27:44.392Z,0.80
2022-11-24T04:30:11.781Z,0.75
2022-11-24T04:32:38.219Z,0.70
2022-11-24T04:35:05.007Z,0.70
2022-11-24T04:37:31.515Z,1.02
2022-11-24T04:39:57.986Z,0.70
2022-11-24T04:42:24.532Z,0.70
2022-11-24T04:44:51.019Z,0.65
2022-11-24T04:47:21.605Z,0.70
2022-11-24T04:49:49.132Z,0.80
2022-11-24T04:52:19.781Z,0.70
2022-11-24T04:54:47.078Z,0.80
2022-11-24T04:57:21.266Z,0.63
2022-11-24T04:59:49.180Z,0.80
2022-11-24T05:02:15.920Z,0.80
2022-11-24T05:04:42.589Z,0.70
2022-11-24T05:07:17.981Z,0.82
2022-11-24T05:10:04.367Z,0.60
2022-11-24T05:12:31.400Z,0.90
2022-11-24T05:15:01.491Z,0.70
2022-11-24T05:17:32.686Z,0.77
2022-11-24T05:19:59.198Z,0.70
2022-11-24T05:22:26.945Z,0.80
2022-11-24T05:24:53.431Z,0.80
2022-11-24T05:27:19.955Z,0.70
2022-11-24T05:29:46.412Z,0.70
2022-11-24T05:32:12.951Z,0.70
2022-11-24T05:34:39.571Z,0.80
2022-11-24T05:37:06.784Z,0.75
2022-11-24T05:39:34.082Z,0.90
2022-11-24T05:42:22.433Z,0.70
2022-11-24T05:44:49.188Z,0.77
2022-11-24T05:47:15.704Z,0.80
2022-11-24T05:49:42.375Z,1.00
2022-11-24T05:52:09.290Z,0.90
2022-11-24T05:54:36.062Z,0.90
2022-11-24T05:57:02.856Z,1.00
2022-11-24T05:59:29.391Z,0.98
2022-11-24T06:01:56.047Z,0.90
2022-11-24T06:04:22.687Z,1.00
2022-11-24T06:06:49.243Z,0.80
2022-11-24T06:09:15.768Z,0.90
2022-11-24T06:11:42.287Z,0.90
2022-11-24T06:14:11.585Z,0.90
2022-11-24T06:16:38.438Z,0.95
2022-11-24T06:19:05.163Z,0.90
2022-11-24T06:21:31.928Z,0.90
2022-11-24T06:23:58.875Z,0.80
2022-11-24T06:26:25.481Z,1.00
2022-11-24T06:28:52.037Z,1.02
2022-11-24T06:31:18.860Z,1.05
2022-11-24T06:33:45.434Z,1.05
2022-11-24T06:36:13.451Z,1.00
2022-11-24T06:38:40.148Z,1.17
2022-11-24T06:41:09.594Z,1.40
2022-11-24T06:43:36.575Z,1.20
2022-11-24T06:46:03.363Z,1.00
2022-11-24T06:48:30.488Z,1.23
2022-11-24T06:51:05.898Z,1.00
2022-11-24T06:53:33.642Z,1.10
2022-11-24T06:56:01.084Z,1.40
2022-11-24T06:58:27.813Z,1.67
2022-11-24T07:00:54.745Z,1.88
2022-11-24T07:03:21.662Z,1.35
2022-11-24T07:05:48.247Z,1.60
2022-11-24T07:08:17.955Z,2.03
2022-11-24T07:10:45.458Z,2.38
2022-11-24T07:13:11.932Z,2.72
2022-11-24T07:15:38.500Z,2.28
2022-11-24T07:18:05.118Z,2.20
2022-11-24T07:20:31.809Z,2.30
2022-11-24T07:22:58.907Z,2.40
2022-11-24T07:25:25.878Z,2.10
2022-11-24T07:27:57.004Z,2.10
2022-11-24T07:30:24.153Z,2.00
2022-11-24T07:32:50.655Z,2.03
2022-11-24T07:35:17.824Z,2.38
2022-11-24T07:37:44.636Z,2.35
2022-11-24T07:40:11.687Z,2.58
2022-11-24T07:42:38.156Z,3.03
2022-11-24T07:45:05.052Z,2.45
2022-11-24T07:47:31.551Z,2.42
2022-11-24T07:49:58.092Z,3.95
2022-11-24T07:52:26.791Z,3.22
2022-11-24T07:54:53.408Z,3.35
2022-11-24T07:57:19.937Z,2.88
2022-11-24T07:59:46.426Z,3.08
2022-11-24T08:02:13.361Z,2.88
2022-11-24T08:04:40.060Z,3.42
2022-11-24T08:07:06.608Z,2.47
2022-11-24T08:09:33.215Z,2.38
2022-11-24T08:11:59.887Z,2.50
2022-11-24T08:14:26.419Z,2.70
2022-11-24T08:16:52.994Z,2.60
2022-11-24T08:19:19.717Z,2.55
2022-11-24T08:21:46.439Z,2.33
2022-11-24T08:24:15.302Z,2.60
2022-11-24T08:26:42.192Z,2.65
2022-11-24T08:29:08.736Z,2.30
2022-11-24T08:31:36.155Z,2.05
2022-11-24T08:34:04.092Z,2.13
2022-11-24T08:36:30.790Z,2.10
2022-11-24T08:38:58.846Z,2.15
2022-11-24T08:41:26.301Z,1.90
2022-11-24T08:43:53.622Z,1.88
2022-11-24T08:46:20.609Z,1.90
2022-11-24T08:48:51.951Z,2.03
2022-11-24T08:51:21.699Z,2.30
2022-11-24T08:53:48.218Z,2.10
2022-11-24T08:56:14.880Z,2.60
2022-11-24T08:58:42.018Z,2.05
2022-11-24T09:01:16.470Z,2.55
2022-11-24T09:03:50.028Z,2.72
2022-11-24T09:06:23.480Z,3.03
2022-11-24T09:08:50.210Z,2.70
2022-11-24T09:11:17.351Z,2.70
2022-11-24T09:13:44.374Z,2.72
2022-11-24T09:16:17.516Z,3.20
2022-11-24T09:18:44.688Z,2.60
2022-11-24T09:21:19.497Z,2.40
2022-11-24T09:23:51.115Z,2.60
2022-11-24T09:26:20.226Z,2.45
2022-11-24T09:28:47.218Z,2.22
2022-11-24T09:31:15.395Z,2.50
2022-11-24T09:33:42.464Z,2.30
2022-11-24T09:36:09.561Z,2.20
2022-11-24T09:38:36.383Z,2.00
2022-11-24T09:41:17.730Z,2.40
2022-11-24T09:43:50.186Z,2.22
2022-11-24T09:46:50.194Z,2.10
2022-11-24T09:49:22.549Z,2.28
2022-11-24T09:51:51.629Z,1.92
2022-11-24T09:54:25.349Z,2.05
2022-11-24T09:56:52.624Z,1.98
2022-11-24T09:59:21.696Z,2.20
2022-11-24T10:01:50.179Z,1.75
2022-11-24T10:04:16.747Z,1.80
2022-11-24T10:07:23.299Z,2.20
2022-11-24T10:10:07.870Z,2.00
2022-11-24T10:12:55.802Z,1.73
2022-11-24T10:15:53.129Z,2.00
2022-11-24T10:18:22.390Z,2.13
2022-11-24T10:21:25.000Z,2.20
2022-11-24T10:23:51.503Z,2.22
2022-11-24T10:26:21.680Z,2.08
2022-11-24T10:28:58.191Z,2.22
2022-11-24T10:31:32.507Z,2.10
2022-11-24T10:34:05.844Z,2.40
2022-11-24T10:37:01.687Z,2.17
2022-11-24T10:39:57.120Z,2.22
2022-11-24T10:42:36.979Z,2.03
2022-11-24T10:45:14.022Z,2.28
2022-11-24T10:47:42.740Z,2.20
2022-11-24T10:50:19.386Z,2.10
2022-11-24T10:53:22.655Z,1.95
2022-11-24T10:55:58.035Z,1.73
2022-11-24T10:58:35.845Z,1.83
2022-11-24T11:01:15.905Z,1.55
2022-11-24T11:03:52.500Z,1.50
2022-11-24T11:06:23.297Z,1.30
2022-11-24T11:08:49.839Z,1.20
2022-11-24T11:11:29.920Z,1.20
2022-11-24T11:14:03.510Z,1.13
2022-11-24T11:16:42.350Z,0.90
2022-11-24T11:19:55.461Z,1.05
2022-11-24T11:22:28.676Z,1.20
2022-11-24T11:25:10.473Z,1.08
2022-11-24T11:27:38.008Z,1.05
2022-11-24T11:36:16.069Z,0.82
2022-11-24T11:38:43.316Z,0.85
2022-11-24T11:41:20.003Z,0.98
2022-11-24T11:43:47.957Z,0.70
2022-11-24T11:46:18.423Z,0.80
2022-11-24T11:48:46.902Z,0.80
2022-11-24T11:51:50.048Z,0.80
2022-11-24T11:54:42.341Z,0.77
2022-11-24T11:57:19.151Z,0.73
2022-11-24T11:59:55.287Z,0.80
2022-11-24T12:02:33.264Z,0.80
2022-11-24T12:05:02.199Z,0.90
2022-11-24T12:08:09.194Z,0.68
2022-11-24T12:10:39.302Z,0.60
2022-11-24T12:13:33.659Z,0.90
2022-11-24T12:16:27.674Z,0.90
2022-11-24T12:19:06.335Z,0.75
2022-11-24T12:21:57.918Z,0.60
2022-11-24T12:24:43.585Z,0.80
2022-11-24T12:27:24.691Z,0.80
2022-11-24T12:29:57.802Z,0.77
2022-11-24T12:32:55.108Z,0.70
2022-11-24T12:35:27.998Z,0.60
2022-11-24T12:38:14.562Z,0.60
2022-11-24T12:41:18.007Z,0.60
2022-11-24T12:43:52.404Z,0.77
2022-11-24T12:46:40.426Z,0.68
2022-11-24T12:49:21.472Z,0.57
2022-11-24T12:51:53.785Z,0.70
2022-11-24T12:54:21.794Z,0.60
2022-11-24T12:57:12.859Z,0.85
2022-11-24T12:59:39.280Z,0.60
2022-11-24T13:02:24.773Z,0.45
2022-11-24T13:04:53.870Z,0.70
2022-11-24T13:07:26.095Z,0.60
2022-11-24T13:10:46.455Z,0.80
2022-11-24T13:13:11.838Z,0.70
2022-11-24T13:18:51.919Z,0.50
2022-11-24T13:21:30.391Z,0.52
2022-11-24T13:23:58.219Z,0.63
2022-11-24T13:26:30.872Z,0.80
2022-11-24T13:29:12.933Z,0.50
2022-11-24T13:31:44.688Z,0.70
2022-11-24T13:34:39.292Z,0.70
2022-11-24T13:37:33.791Z,0.63
2022-11-24T13:40:14.341Z,0.60
2022-11-24T13:42:56.260Z,0.60
2022-11-24T13:45:45.275Z,0.60
2022-11-24T13:48:21.660Z,0.60
2022-11-24T13:50:52.191Z,0.50
2022-11-24T13:53:24.815Z,0.60
2022-11-24T13:56:00.352Z,0.50
2022-11-24T13:58:31.270Z,0.60
2022-11-24T14:01:22.147Z,0.60
2022-11-24T14:04:35.513Z,0.70
2022-11-24T14:07:09.530Z,0.50
2022-11-24T14:09:44.948Z,0.40
2022-11-24T14:12:21.333Z,0.40
2022-11-24T14:14:49.891Z,0.50
2022-11-24T14:17:20.834Z,0.50
2022-11-24T14:19:49.362Z,0.50
2022-11-24T14:22:21.773Z,0.50
2022-11-24T14:24:57.100Z,0.70
2022-11-24T14:27:31.998Z,0.60
2022-11-24T14:30:05.856Z,0.30
2022-11-24T14:32:32.407Z,0.45
2022-11-24T14:34:59.065Z,0.50
2022-11-24T14:37:25.784Z,0.50
2022-11-24T14:39:52.488Z,0.40
2022-11-24T14:42:24.438Z,0.60
2022-11-24T14:44:56.425Z,0.50
2022-11-24T14:47:32.422Z,0.50
2022-11-24T14:50:12.481Z,0.50
2022-11-24T14:52:53.326Z,0.50
2022-11-24T14:55:28.161Z,0.55
2022-11-24T14:57:54.905Z,0.40
2022-11-24T15:00:24.277Z,0.60
2022-11-24T15:03:16.168Z,0.40
2022-11-24T15:06:00.505Z,0.40
2022-11-24T15:08:42.413Z,0.38
2022-11-24T15:11:08.958Z,0.60
2022-11-24T15:13:38.267Z,0.40
2022-11-24T15:16:07.384Z,0.40
2022-11-24T15:18:45.268Z,0.40
2022-11-24T15:21:17.459Z,0.50
2022-11-24T15:24:04.855Z,0.40
2022-11-24T15:26:36.729Z,0.40
2022-11-24T15:29:06.946Z,0.43
2022-11-24T15:31:33.500Z,0.40
2022-11-24T15:34:00.118Z,0.50
2022-11-24T15:36:26.703Z,0.70
2022-11-24T15:38:53.245Z,0.50
2022-11-24T15:41:21.425Z,0.60
2022-11-24T15:43:47.979Z,0.60
2022-11-24T15:46:14.603Z,0.60
2022-11-24T15:48:41.506Z,0.47
2022-11-24T15:51:13.308Z,0.52
2022-11-24T15:53:43.355Z,0.60
2022-11-24T15:56:16.237Z,0.43
2022-11-24T15:58:42.771Z,0.45
2022-11-24T16:01:09.339Z,0.70
2022-11-24T16:03:46.892Z,0.80
2022-11-24T16:06:24.127Z,0.57
2022-11-24T16:08:52.804Z,0.90
2022-11-24T16:11:19.401Z,0.70
2022-11-24T16:13:51.999Z,0.68
2022-11-24T16:16:20.009Z,0.80
2022-11-24T16:18:46.663Z,0.90
2022-11-24T16:21:13.268Z,1.00
2022-11-24T16:23:40.628Z,1.45
2022-11-24T16:26:07.499Z,2.50
2022-11-24T16:28:34.016Z,2.17
2022-11-24T16:31:00.599Z,2.63
2022-11-24T16:33:29.178Z,2.70
2022-11-24T16:35:55.651Z,3.42
2022-11-24T16:38:22.298Z,4.60
2022-11-24T16:40:53.013Z,5.30
2022-11-24T16:43:19.813Z,5.07
2022-11-24T16:45:46.590Z,5.47
2022-11-24T16:48:13.186Z,6.85
2022-11-24T16:50:39.761Z,5.40
2022-11-24T16:53:06.268Z,6.53
2022-11-24T16:55:32.810Z,5.55
2022-11-24T16:57:59.327Z,6.13
2022-11-24T17:00:25.822Z,5.93
2022-11-24T17:02:52.577Z,6.30
2022-11-24T17:05:19.109Z,6.47
2022-11-24T17:07:45.639Z,6.18
2022-11-24T17:10:12.153Z,6.10
2022-11-24T17:12:38.748Z,6.18
2022-11-24T17:18:22.434Z,6.25
2022-11-24T17:20:38.729Z,5.93
2022-11-24T17:23:05.290Z,6.32
2022-11-24T17:25:32.667Z,5.57
2022-11-24T17:27:59.337Z,5.85
2022-11-24T17:30:25.882Z,5.95
2022-11-24T17:32:56.631Z,5.20
2022-11-24T17:35:23.670Z,5.33
2022-11-24T17:37:50.288Z,5.63
2022-11-24T17:40:34.315Z,5.65
2022-11-24T17:43:01.355Z,5.05
2022-11-24T17:45:28.906Z,5.78
2022-11-24T17:47:56.226Z,4.60
2022-11-24T17:50:26.093Z,5.35
2022-11-24T17:52:53.580Z,5.47
2022-11-24T17:55:20.127Z,5.13
2022-11-24T17:57:46.771Z,5.00
2022-11-24T18:00:13.974Z,4.43
2022-11-24T18:02:40.472Z,4.40
2022-11-24T18:05:07.487Z,4.03
2022-11-24T18:07:36.596Z,4.10
2022-11-24T18:10:04.254Z,4.18
2022-11-24T18:12:31.042Z,3.60
2022-11-24T18:14:57.485Z,3.80
2022-11-24T18:17:24.078Z,4.03
2022-11-24T18:19:50.656Z,3.95
2022-11-24T18:22:17.602Z,4.10
2022-11-24T18:24:47.302Z,4.95
2022-11-24T18:27:13.823Z,4.22
2022-11-24T18:29:40.291Z,5.68
2022-11-24T18:32:06.962Z,4.60
2022-11-24T18:34:34.000Z,4.80
2022-11-24T18:37:00.810Z,4.85
2022-11-24T18:39:28.443Z,4.90
2022-11-24T18:41:54.991Z,4.40
2022-11-24T18:44:21.480Z,4.60
2022-11-24T18:46:49.385Z,5.85
2022-11-24T18:49:15.909Z,5.03
2022-11-24T18:51:42.357Z,4.50
2022-11-24T18:54:08.938Z,4.35
2022-11-24T18:56:35.483Z,4.70
2022-11-24T18:59:02.325Z,4.20
2022-11-24T19:01:29.419Z,4.82
2022-11-24T19:03:57.976Z,3.97
2022-11-24T19:06:32.329Z,4.50
2022-11-24T19:09:20.453Z,4.68
2022-11-24T19:11:47.367Z,4.25
2022-11-24T19:14:15.963Z,4.10
2022-11-24T19:16:43.240Z,4.10
2022-11-24T19:19:12.340Z,3.92
2022-11-24T19:21:39.934Z,3.70
2022-11-24T19:24:07.861Z,3.45
2022-11-24T19:26:37.440Z,3.63
2022-11-24T19:29:04.710Z,3.22
2022-11-24T19:31:31.539Z,3.60
2022-11-24T19:34:00.660Z,3.38
2022-11-24T19:36:29.896Z,3.35
2022-11-24T19:38:57.584Z,3.45
2022-11-24T19:41:29.904Z,3.40
2022-11-24T19:43:57.936Z,3.50
2022-11-24T19:46:27.124Z,3.60
2022-11-24T19:48:56.146Z,3.33
2022-11-24T19:51:26.487Z,3.70
2022-11-24T19:53:56.342Z,3.58
2022-11-24T19:56:24.866Z,3.42
2022-11-24T19:58:52.094Z,3.25
2022-11-24T20:01:22.830Z,3.10
2022-11-24T20:03:59.002Z,3.30
2022-11-24T20:06:30.617Z,3.40
2022-11-24T20:08:58.694Z,3.03
2022-11-24T20:11:25.222Z,3.03
2022-11-24T20:13:51.899Z,2.78
2022-11-24T20:16:28.318Z,3.13
2022-11-24T20:18:56.759Z,3.05
2022-11-24T20:21:33.902Z,2.97
2022-11-24T20:24:10.254Z,3.25
2022-11-24T20:26:39.736Z,3.30
2022-11-24T20:29:06.650Z,2.97
2022-11-24T20:31:35.968Z,3.15
2022-11-24T20:34:03.942Z,3.00
2022-11-24T20:36:32.013Z,2.78
2022-11-24T20:39:00.381Z,2.90
2022-11-24T20:41:29.186Z,2.97
2022-11-24T20:43:57.994Z,3.35
2022-11-24T20:46:27.170Z,4.18
2022-11-24T20:48:54.537Z,3.42
2022-11-24T20:51:28.933Z,4.20
2022-11-24T20:53:58.992Z,3.85
2022-11-24T20:56:28.095Z,3.38
2022-11-24T20:58:55.375Z,3.38
2022-11-24T21:01:29.368Z,3.05
2022-11-24T21:03:57.950Z,3.30
2022-11-24T21:06:25.071Z,3.20
2022-11-24T21:08:52.077Z,3.10
2022-11-24T21:11:19.216Z,3.20
2022-11-24T21:13:46.061Z,3.20
2022-11-24T21:16:22.140Z,3.22
2022-11-24T21:18:51.072Z,2.97
2022-11-24T21:21:19.152Z,3.20
2022-11-24T21:23:46.163Z,3.20
2022-11-24T21:26:16.619Z,3.30
2022-11-24T21:28:45.897Z,3.10
2022-11-24T21:31:14.938Z,3.30
2022-11-24T21:33:43.268Z,3.78
2022-11-24T21:36:09.894Z,3.20
2022-11-24T21:38:36.684Z,3.15
2022-11-24T21:41:05.755Z,3.30
2022-11-24T21:43:33.039Z,3.42
2022-11-24T21:46:03.876Z,3.00
2022-11-24T21:48:31.273Z,3.15
2022-11-24T21:50:59.119Z,3.33
2022-11-24T21:53:26.535Z,2.67
2022-11-24T21:55:57.376Z,2.88
2022-11-24T21:58:24.719Z,2.72
2022-11-24T22:00:51.624Z,2.83
2022-11-24T22:03:19.059Z,3.38
2022-11-24T22:05:56.123Z,3.30
2022-11-24T22:08:23.685Z,2.80
2022-11-24T22:10:50.453Z,3.00
2022-11-24T22:13:17.043Z,2.88
2022-11-24T22:15:43.794Z,3.00
2022-11-24T22:18:10.609Z,2.92
2022-11-24T22:20:37.118Z,3.20
2022-11-24T22:23:04.161Z,3.30
2022-11-24T22:25:30.751Z,3.10
2022-11-24T22:27:58.286Z,2.60
2022-11-24T22:30:24.823Z,2.83
2022-11-24T22:32:51.574Z,2.80
2022-11-24T22:35:18.058Z,2.60
2022-11-24T22:37:44.553Z,2.40
2022-11-24T22:40:11.310Z,2.40
2022-11-24T22:42:37.760Z,2.85
2022-11-24T22:45:04.687Z,2.53
2022-11-24T22:47:31.197Z,2.50
2022-11-24T22:49:57.658Z,2.40
2022-11-24T22:52:24.211Z,2.53
2022-11-24T22:54:50.867Z,2.20
2022-11-24T22:57:17.344Z,2.20
2022-11-24T22:59:43.878Z,2.28
2022-11-24T23:02:10.630Z,2.10
2022-11-24T23:04:37.448Z,2.30
2022-11-24T23:07:04.158Z,2.20
2022-11-24T23:09:30.693Z,1.92
2022-11-24T23:11:57.191Z,2.50
2022-11-24T23:14:23.715Z,2.30
2022-11-24T23:16:50.277Z,2.03
2022-11-24T23:19:16.804Z,2.10
2022-11-24T23:21:43.200Z,1.95
2022-11-24T23:24:10.588Z,2.20
2022-11-24T23:26:39.363Z,2.00
2022-11-24T23:29:06.320Z,2.03
2022-11-24T23:31:33.007Z,2.25
2022-11-24T23:34:01.521Z,2.47
2022-11-24T23:36:28.689Z,1.77
2022-11-24T23:38:55.227Z,2.33
2022-11-24T23:41:24.297Z,2.20
2022-11-24T23:43:52.329Z,2.20
2022-11-24T23:46:21.485Z,2.40
2022-11-24T23:48:48.971Z,1.95
2022-11-24T23:51:17.060Z,1.95
2022-11-24T23:53:43.967Z,2.15
2022-11-24T23:56:15.082Z,2.10
2022-11-24T23:58:41.865Z,2.20
